sensor_id;sensor_type;location;lat;lon;timestamp;temperature;humidity
46752;DHT22;32497;48.936;9.270;2022-09-17T00:00:43;9.70;86.50
46752;DHT22;32497;48.936;9.270;2022-09-17T00:05:44;9.70;87.10
46752;DHT22;32497;48.936;9.270;2022-09-17T00:10:46;9.70;86.60
46752;DHT22;32497;48.936;9.270;2022-09-17T00:15:48;9.90;86.40
46752;DHT22;32497;48.936;9.270;2022-09-17T00:20:49;9.90;85.60
46752;DHT22;32497;48.936;9.270;2022-09-17T00:25:51;10.00;85.30
46752;DHT22;32497;48.936;9.270;2022-09-17T00:30:52;10.10;85.80
46752;DHT22;32497;48.936;9.270;2022-09-17T00:35:59;10.10;84.40
46752;DHT22;32497;48.936;9.270;2022-09-17T00:41:03;10.10;85.00
46752;DHT22;32497;48.936;9.270;2022-09-17T00:46:09;10.20;84.60
46752;DHT22;32497;48.936;9.270;2022-09-17T00:51:13;10.10;84.60
46752;DHT22;32497;48.936;9.270;2022-09-17T00:56:20;10.20;85.30
46752;DHT22;32497;48.936;9.270;2022-09-17T01:01:21;10.20;84.80
46752;DHT22;32497;48.936;9.270;2022-09-17T01:06:31;10.00;84.90
46752;DHT22;32497;48.936;9.270;2022-09-17T01:11:44;9.80;85.60
46752;DHT22;32497;48.936;9.270;2022-09-17T01:16:56;9.60;86.40
46752;DHT22;32497;48.936;9.270;2022-09-17T01:22:04;9.50;86.60
46752;DHT22;32497;48.936;9.270;2022-09-17T01:27:37;9.50;86.80
46752;DHT22;32497;48.936;9.270;2022-09-17T01:32:49;9.50;87.20
46752;DHT22;32497;48.936;9.270;2022-09-17T01:37:59;9.40;87.40
46752;DHT22;32497;48.936;9.270;2022-09-17T01:43:04;9.40;87.40
46752;DHT22;32497;48.936;9.270;2022-09-17T01:48:11;9.40;87.50
46752;DHT22;32497;48.936;9.270;2022-09-17T01:53:16;9.40;87.70
46752;DHT22;32497;48.936;9.270;2022-09-17T01:58:22;9.40;87.70
46752;DHT22;32497;48.936;9.270;2022-09-17T02:03:32;9.40;87.60
46752;DHT22;32497;48.936;9.270;2022-09-17T02:08:38;9.40;87.70
46752;DHT22;32497;48.936;9.270;2022-09-17T02:13:44;9.30;87.80
46752;DHT22;32497;48.936;9.270;2022-09-17T02:18:49;9.20;88.40
46752;DHT22;32497;48.936;9.270;2022-09-17T02:23:59;9.20;88.50
46752;DHT22;32497;48.936;9.270;2022-09-17T02:29:07;9.30;88.30
46752;DHT22;32497;48.936;9.270;2022-09-17T02:34:10;9.20;88.20
46752;DHT22;32497;48.936;9.270;2022-09-17T02:39:11;9.40;88.50
46752;DHT22;32497;48.936;9.270;2022-09-17T02:44:20;9.40;88.10
46752;DHT22;32497;48.936;9.270;2022-09-17T02:49:33;9.40;87.30
46752;DHT22;32497;48.936;9.270;2022-09-17T02:54:41;9.50;86.40
46752;DHT22;32497;48.936;9.270;2022-09-17T02:59:51;9.70;86.40
46752;DHT22;32497;48.936;9.270;2022-09-17T03:04:54;9.60;85.90
46752;DHT22;32497;48.936;9.270;2022-09-17T03:09:55;9.70;86.10
46752;DHT22;32497;48.936;9.270;2022-09-17T03:14:56;9.70;85.70
46752;DHT22;32497;48.936;9.270;2022-09-17T03:19:59;9.60;85.70
46752;DHT22;32497;48.936;9.270;2022-09-17T03:25:00;9.60;86.20
46752;DHT22;32497;48.936;9.270;2022-09-17T03:30:01;9.60;86.30
46752;DHT22;32497;48.936;9.270;2022-09-17T03:35:04;9.40;86.20
46752;DHT22;32497;48.936;9.270;2022-09-17T03:40:06;9.30;87.00
46752;DHT22;32497;48.936;9.270;2022-09-17T03:45:08;9.30;87.30
46752;DHT22;32497;48.936;9.270;2022-09-17T03:50:10;9.30;87.30
46752;DHT22;32497;48.936;9.270;2022-09-17T03:55:11;9.20;87.60
46752;DHT22;32497;48.936;9.270;2022-09-17T04:00:13;9.20;87.50
46752;DHT22;32497;48.936;9.270;2022-09-17T04:05:17;9.20;87.40
46752;DHT22;32497;48.936;9.270;2022-09-17T04:10:18;9.30;87.10
46752;DHT22;32497;48.936;9.270;2022-09-17T04:15:19;9.50;87.20
46752;DHT22;32497;48.936;9.270;2022-09-17T04:20:21;9.50;86.90
46752;DHT22;32497;48.936;9.270;2022-09-17T04:25:22;9.50;86.70
46752;DHT22;32497;48.936;9.270;2022-09-17T04:30:23;9.60;86.50
46752;DHT22;32497;48.936;9.270;2022-09-17T04:35:26;9.60;86.80
46752;DHT22;32497;48.936;9.270;2022-09-17T04:40:31;9.40;86.70
46752;DHT22;32497;48.936;9.270;2022-09-17T04:45:33;9.20;87.00
46752;DHT22;32497;48.936;9.270;2022-09-17T04:50:35;9.20;87.50
46752;DHT22;32497;48.936;9.270;2022-09-17T04:55:38;9.20;87.50
46752;DHT22;32497;48.936;9.270;2022-09-17T05:00:39;9.00;87.50
46752;DHT22;32497;48.936;9.270;2022-09-17T05:05:42;9.00;87.80
46752;DHT22;32497;48.936;9.270;2022-09-17T05:10:43;8.90;87.90
46752;DHT22;32497;48.936;9.270;2022-09-17T05:15:45;8.90;87.90
46752;DHT22;32497;48.936;9.270;2022-09-17T05:20:48;8.90;87.70
46752;DHT22;32497;48.936;9.270;2022-09-17T05:25:49;8.90;87.80
46752;DHT22;32497;48.936;9.270;2022-09-17T05:30:51;9.00;87.90
46752;DHT22;32497;48.936;9.270;2022-09-17T05:35:54;9.00;87.70
46752;DHT22;32497;48.936;9.270;2022-09-17T05:40:55;9.00;87.80
46752;DHT22;32497;48.936;9.270;2022-09-17T05:46:00;9.30;87.20
46752;DHT22;32497;48.936;9.270;2022-09-17T05:51:04;9.30;86.80
46752;DHT22;32497;48.936;9.270;2022-09-17T05:56:05;9.40;86.50
46752;DHT22;32497;48.936;9.270;2022-09-17T06:01:07;9.40;85.80
46752;DHT22;32497;48.936;9.270;2022-09-17T06:06:10;9.50;85.60
46752;DHT22;32497;48.936;9.270;2022-09-17T06:11:11;9.50;86.30
46752;DHT22;32497;48.936;9.270;2022-09-17T06:16:12;9.60;85.60
46752;DHT22;32497;48.936;9.270;2022-09-17T06:21:15;9.70;84.20
46752;DHT22;32497;48.936;9.270;2022-09-17T06:26:18;9.80;85.50
46752;DHT22;32497;48.936;9.270;2022-09-17T06:31:19;9.80;85.30
46752;DHT22;32497;48.936;9.270;2022-09-17T06:36:21;9.80;84.90
46752;DHT22;32497;48.936;9.270;2022-09-17T06:41:23;9.70;83.90
46752;DHT22;32497;48.936;9.270;2022-09-17T06:46:24;9.80;84.00
46752;DHT22;32497;48.936;9.270;2022-09-17T06:51:28;9.80;84.20
46752;DHT22;32497;48.936;9.270;2022-09-17T06:56:32;9.80;84.40
46752;DHT22;32497;48.936;9.270;2022-09-17T07:01:34;9.80;84.40
46752;DHT22;32497;48.936;9.270;2022-09-17T07:06:37;9.90;84.30
46752;DHT22;32497;48.936;9.270;2022-09-17T07:11:41;9.80;85.30
46752;DHT22;32497;48.936;9.270;2022-09-17T07:16:46;9.80;85.80
46752;DHT22;32497;48.936;9.270;2022-09-17T07:21:53;9.60;86.90
46752;DHT22;32497;48.936;9.270;2022-09-17T07:26:54;9.40;88.80
46752;DHT22;32497;48.936;9.270;2022-09-17T07:31:57;9.20;90.00
46752;DHT22;32497;48.936;9.270;2022-09-17T07:36:59;9.10;90.50
46752;DHT22;32497;48.936;9.270;2022-09-17T07:42:01;9.20;90.80
46752;DHT22;32497;48.936;9.270;2022-09-17T07:47:03;9.30;91.00
46752;DHT22;32497;48.936;9.270;2022-09-17T07:52:06;9.30;91.20
46752;DHT22;32497;48.936;9.270;2022-09-17T07:57:11;9.40;91.60
46752;DHT22;32497;48.936;9.270;2022-09-17T08:02:14;9.50;90.70
46752;DHT22;32497;48.936;9.270;2022-09-17T08:07:19;9.50;90.20
46752;DHT22;32497;48.936;9.270;2022-09-17T08:12:24;9.40;90.70
46752;DHT22;32497;48.936;9.270;2022-09-17T08:17:27;9.60;89.90
46752;DHT22;32497;48.936;9.270;2022-09-17T08:22:30;9.70;88.70
46752;DHT22;32497;48.936;9.270;2022-09-17T08:27:32;9.70;89.50
46752;DHT22;32497;48.936;9.270;2022-09-17T08:32:35;9.90;89.00
46752;DHT22;32497;48.936;9.270;2022-09-17T08:37:41;10.20;88.70
46752;DHT22;32497;48.936;9.270;2022-09-17T08:42:50;10.70;87.40
46752;DHT22;32497;48.936;9.270;2022-09-17T08:47:54;11.00;85.60
46752;DHT22;32497;48.936;9.270;2022-09-17T08:53:14;11.20;84.00
46752;DHT22;32497;48.936;9.270;2022-09-17T08:58:43;11.60;85.00
46752;DHT22;32497;48.936;9.270;2022-09-17T09:04:03;11.50;82.60
46752;DHT22;32497;48.936;9.270;2022-09-17T09:09:12;11.20;84.10
46752;DHT22;32497;48.936;9.270;2022-09-17T09:14:26;11.00;84.70
46752;DHT22;32497;48.936;9.270;2022-09-17T09:19:30;11.10;82.20
46752;DHT22;32497;48.936;9.270;2022-09-17T09:24:40;11.30;84.00
46752;DHT22;32497;48.936;9.270;2022-09-17T09:29:47;11.50;84.00
46752;DHT22;32497;48.936;9.270;2022-09-17T09:34:53;11.60;82.70
46752;DHT22;32497;48.936;9.270;2022-09-17T09:40:03;11.90;82.20
46752;DHT22;32497;48.936;9.270;2022-09-17T09:45:14;12.20;80.90
46752;DHT22;32497;48.936;9.270;2022-09-17T09:50:30;12.50;79.10
46752;DHT22;32497;48.936;9.270;2022-09-17T09:55:45;12.50;78.10
46752;DHT22;32497;48.936;9.270;2022-09-17T10:00:48;12.20;78.50
46752;DHT22;32497;48.936;9.270;2022-09-17T10:05:57;12.50;78.10
46752;DHT22;32497;48.936;9.270;2022-09-17T10:11:01;12.70;73.40
46752;DHT22;32497;48.936;9.270;2022-09-17T10:16:15;12.90;74.70
46752;DHT22;32497;48.936;9.270;2022-09-17T10:21:21;13.20;74.10
46752;DHT22;32497;48.936;9.270;2022-09-17T10:26:25;13.70;74.20
46752;DHT22;32497;48.936;9.270;2022-09-17T10:31:27;13.40;74.30
46752;DHT22;32497;48.936;9.270;2022-09-17T10:36:46;13.50;74.10
46752;DHT22;32497;48.936;9.270;2022-09-17T10:41:54;13.60;72.50
46752;DHT22;32497;48.936;9.270;2022-09-17T10:47:02;13.90;73.30
46752;DHT22;32497;48.936;9.270;2022-09-17T10:52:06;13.40;72.30
46752;DHT22;32497;48.936;9.270;2022-09-17T10:57:16;14.00;70.80
46752;DHT22;32497;48.936;9.270;2022-09-17T11:08:00;14.80;67.10
46752;DHT22;32497;48.936;9.270;2022-09-17T11:13:13;14.90;67.20
46752;DHT22;32497;48.936;9.270;2022-09-17T11:18:29;14.90;68.00
46752;DHT22;32497;48.936;9.270;2022-09-17T11:29:31;14.80;63.90
46752;DHT22;32497;48.936;9.270;2022-09-17T11:34:37;14.90;66.80
46752;DHT22;32497;48.936;9.270;2022-09-17T11:39:47;15.10;62.70
46752;DHT22;32497;48.936;9.270;2022-09-17T11:44:54;14.30;71.70
46752;DHT22;32497;48.936;9.270;2022-09-17T11:50:00;13.10;81.40
46752;DHT22;32497;48.936;9.270;2022-09-17T11:55:09;13.20;80.60
46752;DHT22;32497;48.936;9.270;2022-09-17T12:00:18;13.70;79.80
46752;DHT22;32497;48.936;9.270;2022-09-17T12:05:21;13.70;78.00
46752;DHT22;32497;48.936;9.270;2022-09-17T12:10:36;13.40;78.60
46752;DHT22;32497;48.936;9.270;2022-09-17T12:15:42;13.30;75.20
46752;DHT22;32497;48.936;9.270;2022-09-17T12:20:47;14.50;73.80
46752;DHT22;32497;48.936;9.270;2022-09-17T12:25:55;14.90;64.20
46752;DHT22;32497;48.936;9.270;2022-09-17T12:31:04;15.20;65.60
46752;DHT22;32497;48.936;9.270;2022-09-17T12:36:31;15.20;68.10
46752;DHT22;32497;48.936;9.270;2022-09-17T12:41:44;15.10;67.30
46752;DHT22;32497;48.936;9.270;2022-09-17T12:46:57;15.20;69.90
46752;DHT22;32497;48.936;9.270;2022-09-17T12:52:03;16.30;66.70
46752;DHT22;32497;48.936;9.270;2022-09-17T12:57:13;16.60;62.40
46752;DHT22;32497;48.936;9.270;2022-09-17T13:02:21;16.70;59.70
46752;DHT22;32497;48.936;9.270;2022-09-17T13:12:56;15.50;62.70
46752;DHT22;32497;48.936;9.270;2022-09-17T13:18:10;14.70;67.10
46752;DHT22;32497;48.936;9.270;2022-09-17T13:23:12;14.30;69.00
46752;DHT22;32497;48.936;9.270;2022-09-17T13:28:13;14.30;69.50
46752;DHT22;32497;48.936;9.270;2022-09-17T13:33:48;14.80;67.10
46752;DHT22;32497;48.936;9.270;2022-09-17T13:38:49;15.00;65.20
46752;DHT22;32497;48.936;9.270;2022-09-17T13:43:51;15.60;62.90
46752;DHT22;32497;48.936;9.270;2022-09-17T13:48:57;15.40;61.80
46752;DHT22;32497;48.936;9.270;2022-09-17T13:54:01;15.40;62.10
46752;DHT22;32497;48.936;9.270;2022-09-17T13:59:06;15.40;62.00
46752;DHT22;32497;48.936;9.270;2022-09-17T14:09:54;14.90;66.30
46752;DHT22;32497;48.936;9.270;2022-09-17T14:14:56;14.40;66.00
46752;DHT22;32497;48.936;9.270;2022-09-17T14:19:57;14.80;66.10
46752;DHT22;32497;48.936;9.270;2022-09-17T14:25:00;16.00;65.60
46752;DHT22;32497;48.936;9.270;2022-09-17T14:30:13;17.10;58.50
46752;DHT22;32497;48.936;9.270;2022-09-17T14:35:18;17.70;57.00
46752;DHT22;32497;48.936;9.270;2022-09-17T14:40:24;16.70;58.60
46752;DHT22;32497;48.936;9.270;2022-09-17T14:45:30;16.20;61.20
46752;DHT22;32497;48.936;9.270;2022-09-17T14:50:32;15.60;63.50
46752;DHT22;32497;48.936;9.270;2022-09-17T14:55:39;14.70;67.30
46752;DHT22;32497;48.936;9.270;2022-09-17T15:00:49;15.20;65.60
46752;DHT22;32497;48.936;9.270;2022-09-17T15:05:52;15.00;65.50
46752;DHT22;32497;48.936;9.270;2022-09-17T15:10:56;15.50;66.00
46752;DHT22;32497;48.936;9.270;2022-09-17T15:16:00;15.70;63.40
46752;DHT22;32497;48.936;9.270;2022-09-17T15:21:04;15.10;64.90
46752;DHT22;32497;48.936;9.270;2022-09-17T15:26:08;14.70;66.90
46752;DHT22;32497;48.936;9.270;2022-09-17T15:31:13;15.50;64.30
46752;DHT22;32497;48.936;9.270;2022-09-17T15:36:19;14.70;67.00
46752;DHT22;32497;48.936;9.270;2022-09-17T15:41:28;14.10;65.40
46752;DHT22;32497;48.936;9.270;2022-09-17T15:46:30;13.90;67.10
46752;DHT22;32497;48.936;9.270;2022-09-17T15:51:34;14.00;70.10
46752;DHT22;32497;48.936;9.270;2022-09-17T15:56:38;14.20;68.20
46752;DHT22;32497;48.936;9.270;2022-09-17T16:01:50;14.30;69.00
46752;DHT22;32497;48.936;9.270;2022-09-17T16:07:19;14.60;67.70
46752;DHT22;32497;48.936;9.270;2022-09-17T16:12:25;14.10;68.90
46752;DHT22;32497;48.936;9.270;2022-09-17T16:17:30;14.00;69.90
46752;DHT22;32497;48.936;9.270;2022-09-17T16:22:31;13.50;72.50
46752;DHT22;32497;48.936;9.270;2022-09-17T16:27:41;13.50;71.80
46752;DHT22;32497;48.936;9.270;2022-09-17T16:32:45;13.60;69.60
46752;DHT22;32497;48.936;9.270;2022-09-17T16:37:47;13.50;70.70
46752;DHT22;32497;48.936;9.270;2022-09-17T16:42:50;13.20;67.30
46752;DHT22;32497;48.936;9.270;2022-09-17T16:47:51;13.20;68.20
46752;DHT22;32497;48.936;9.270;2022-09-17T16:52:52;13.10;68.10
46752;DHT22;32497;48.936;9.270;2022-09-17T16:57:57;13.00;67.50
46752;DHT22;32497;48.936;9.270;2022-09-17T17:02:58;13.00;69.50
46752;DHT22;32497;48.936;9.270;2022-09-17T17:07:58;13.00;70.30
46752;DHT22;32497;48.936;9.270;2022-09-17T17:13:01;12.90;71.10
46752;DHT22;32497;48.936;9.270;2022-09-17T17:18:02;12.60;74.50
46752;DHT22;32497;48.936;9.270;2022-09-17T17:23:03;11.80;83.90
46752;DHT22;32497;48.936;9.270;2022-09-17T17:28:05;10.70;83.00
46752;DHT22;32497;48.936;9.270;2022-09-17T17:33:06;10.20;86.40
46752;DHT22;32497;48.936;9.270;2022-09-17T17:38:07;10.10;86.80
46752;DHT22;32497;48.936;9.270;2022-09-17T17:43:10;10.20;88.50
46752;DHT22;32497;48.936;9.270;2022-09-17T17:48:11;10.20;89.10
46752;DHT22;32497;48.936;9.270;2022-09-17T17:53:12;10.30;89.30
46752;DHT22;32497;48.936;9.270;2022-09-17T17:58:14;10.40;88.80
46752;DHT22;32497;48.936;9.270;2022-09-17T18:03:15;10.50;89.90
46752;DHT22;32497;48.936;9.270;2022-09-17T18:08:16;10.60;90.20
46752;DHT22;32497;48.936;9.270;2022-09-17T18:13:18;10.60;90.50
46752;DHT22;32497;48.936;9.270;2022-09-17T18:18:21;10.60;90.70
46752;DHT22;32497;48.936;9.270;2022-09-17T18:23:22;10.60;89.70
46752;DHT22;32497;48.936;9.270;2022-09-17T18:28:25;10.50;89.50
46752;DHT22;32497;48.936;9.270;2022-09-17T18:33:26;10.50;90.40
46752;DHT22;32497;48.936;9.270;2022-09-17T18:38:27;10.50;90.00
46752;DHT22;32497;48.936;9.270;2022-09-17T18:43:31;10.50;90.20
46752;DHT22;32497;48.936;9.270;2022-09-17T18:48:32;10.40;90.00
46752;DHT22;32497;48.936;9.270;2022-09-17T18:53:35;10.40;90.30
46752;DHT22;32497;48.936;9.270;2022-09-17T18:58:38;10.30;90.00
46752;DHT22;32497;48.936;9.270;2022-09-17T19:03:39;10.40;90.50
46752;DHT22;32497;48.936;9.270;2022-09-17T19:08:40;10.30;90.50
46752;DHT22;32497;48.936;9.270;2022-09-17T19:13:44;10.20;90.50
46752;DHT22;32497;48.936;9.270;2022-09-17T19:18:46;10.20;90.90
46752;DHT22;32497;48.936;9.270;2022-09-17T19:23:48;10.20;91.00
46752;DHT22;32497;48.936;9.270;2022-09-17T19:28:52;10.10;90.70
46752;DHT22;32497;48.936;9.270;2022-09-17T19:33:54;10.00;89.80
46752;DHT22;32497;48.936;9.270;2022-09-17T19:38:55;9.90;88.70
46752;DHT22;32497;48.936;9.270;2022-09-17T19:43:58;9.90;90.00
46752;DHT22;32497;48.936;9.270;2022-09-17T19:48:59;9.70;88.90
46752;DHT22;32497;48.936;9.270;2022-09-17T19:54:00;9.70;89.40
46752;DHT22;32497;48.936;9.270;2022-09-17T19:59:02;9.50;89.70
46752;DHT22;32497;48.936;9.270;2022-09-17T20:04:03;9.50;89.70
46752;DHT22;32497;48.936;9.270;2022-09-17T20:09:05;9.50;88.70
46752;DHT22;32497;48.936;9.270;2022-09-17T20:14:08;9.50;88.00
46752;DHT22;32497;48.936;9.270;2022-09-17T20:19:13;9.50;88.60
46752;DHT22;32497;48.936;9.270;2022-09-17T20:24:14;9.60;89.10
46752;DHT22;32497;48.936;9.270;2022-09-17T20:29:16;9.60;89.10
46752;DHT22;32497;48.936;9.270;2022-09-17T20:34:17;9.60;89.20
46752;DHT22;32497;48.936;9.270;2022-09-17T20:39:18;9.50;88.80
46752;DHT22;32497;48.936;9.270;2022-09-17T20:44:21;9.30;89.10
46752;DHT22;32497;48.936;9.270;2022-09-17T20:49:22;9.30;90.70
46752;DHT22;32497;48.936;9.270;2022-09-17T20:54:23;9.30;90.90
46752;DHT22;32497;48.936;9.270;2022-09-17T20:59:25;9.20;91.10
46752;DHT22;32497;48.936;9.270;2022-09-17T21:04:26;9.10;91.20
46752;DHT22;32497;48.936;9.270;2022-09-17T21:09:27;9.10;91.10
46752;DHT22;32497;48.936;9.270;2022-09-17T21:14:29;9.00;91.00
46752;DHT22;32497;48.936;9.270;2022-09-17T21:19:30;9.00;90.50
46752;DHT22;32497;48.936;9.270;2022-09-17T21:24:31;9.00;89.00
46752;DHT22;32497;48.936;9.270;2022-09-17T21:29:34;9.10;90.50
46752;DHT22;32497;48.936;9.270;2022-09-17T21:34:35;9.00;90.10
46752;DHT22;32497;48.936;9.270;2022-09-17T21:39:36;9.10;91.20
46752;DHT22;32497;48.936;9.270;2022-09-17T21:44:38;9.10;91.20
46752;DHT22;32497;48.936;9.270;2022-09-17T21:49:39;9.20;91.20
46752;DHT22;32497;48.936;9.270;2022-09-17T21:54:40;9.30;90.80
46752;DHT22;32497;48.936;9.270;2022-09-17T21:59:42;9.40;91.10
46752;DHT22;32497;48.936;9.270;2022-09-17T22:04:43;9.40;91.00
46752;DHT22;32497;48.936;9.270;2022-09-17T22:09:44;9.50;90.70
46752;DHT22;32497;48.936;9.270;2022-09-17T22:14:46;9.60;91.40
46752;DHT22;32497;48.936;9.270;2022-09-17T22:19:47;9.50;91.00
46752;DHT22;32497;48.936;9.270;2022-09-17T22:24:48;9.60;90.90
46752;DHT22;32497;48.936;9.270;2022-09-17T22:29:51;9.60;90.60
46752;DHT22;32497;48.936;9.270;2022-09-17T22:34:51;9.50;90.20
46752;DHT22;32497;48.936;9.270;2022-09-17T22:39:52;9.50;90.80
46752;DHT22;32497;48.936;9.270;2022-09-17T22:44:55;9.50;90.20
46752;DHT22;32497;48.936;9.270;2022-09-17T22:49:56;9.60;90.80
46752;DHT22;32497;48.936;9.270;2022-09-17T22:54:57;9.50;89.80
46752;DHT22;32497;48.936;9.270;2022-09-17T22:59:59;9.60;90.40
46752;DHT22;32497;48.936;9.270;2022-09-17T23:05:00;9.50;90.30
46752;DHT22;32497;48.936;9.270;2022-09-17T23:10:02;9.50;89.90
46752;DHT22;32497;48.936;9.270;2022-09-17T23:15:05;9.50;90.10
46752;DHT22;32497;48.936;9.270;2022-09-17T23:20:06;9.50;90.00
46752;DHT22;32497;48.936;9.270;2022-09-17T23:25:08;9.60;89.80
46752;DHT22;32497;48.936;9.270;2022-09-17T23:30:11;9.60;90.00
46752;DHT22;32497;48.936;9.270;2022-09-17T23:35:12;9.60;89.60
46752;DHT22;32497;48.936;9.270;2022-09-17T23:40:13;9.50;89.40
46752;DHT22;32497;48.936;9.270;2022-09-17T23:45:15;9.50;89.90
46752;DHT22;32497;48.936;9.270;2022-09-17T23:50:17;9.60;89.70
46752;DHT22;32497;48.936;9.270;2022-09-17T23:55:18;9.60;89.30
